Terminal Aerodrome Forecast
Issued by NWS Upton, NY

Home | Current Version | Previous Version | Text Only | Print | Product List | Glossary On
Versions: 1 2 3 4 5 6 7 8 9 10 11 12 13 14 15 16 17 18 19 20 21 22 23 24 25 26 27 28 29 30 31 32 33
688
FTUS41 KOKX 291546 AAB
TAFEWR
TAF AMD
KEWR 291546Z 2916/3018 10010G16KT P6SM BKN060
     FM291900 12008KT P6SM OVC060
     FM292200 11006KT P6SM -RA OVC050
     FM300100 07006KT P6SM -RA FEW025 OVC045
     FM300300 04006KT P6SM -RA SCT025 OVC040
     FM300500 02006KT P6SM BKN060
     FM301100 04006KT P6SM SCT060
     FM301600 10008KT P6SM SCT060=

USA.gov is the U.S. government's official web portal to all federal, state and local government web resources and services.